sensor_id;sensor_type;location;lat;lon;timestamp;P1;durP1;ratioP1;P2;durP2;ratioP2
82779;SDS011;72511;45.120;20.720;2024-02-26T00:08:28;15.43;;;10.40;;
82779;SDS011;72511;45.120;20.720;2024-02-26T00:18:30;15.07;;;10.82;;
82779;SDS011;72511;45.120;20.720;2024-02-26T00:28:31;17.63;;;12.10;;
82779;SDS011;72511;45.120;20.720;2024-02-26T00:38:33;14.98;;;9.25;;
82779;SDS011;72511;45.120;20.720;2024-02-26T00:48:35;14.73;;;9.80;;
82779;SDS011;72511;45.120;20.720;2024-02-26T00:58:36;19.92;;;13.45;;
82779;SDS011;72511;45.120;20.720;2024-02-26T01:08:38;17.35;;;13.18;;
82779;SDS011;72511;45.120;20.720;2024-02-26T01:18:40;16.10;;;11.23;;
82779;SDS011;72511;45.120;20.720;2024-02-26T01:28:41;16.23;;;10.80;;
82779;SDS011;72511;45.120;20.720;2024-02-26T01:38:42;15.60;;;10.40;;
82779;SDS011;72511;45.120;20.720;2024-02-26T01:48:44;16.45;;;9.48;;
82779;SDS011;72511;45.120;20.720;2024-02-26T01:58:48;23.02;;;13.52;;
82779;SDS011;72511;45.120;20.720;2024-02-26T02:08:49;21.05;;;13.25;;
82779;SDS011;72511;45.120;20.720;2024-02-26T02:18:51;24.00;;;14.75;;
82779;SDS011;72511;45.120;20.720;2024-02-26T02:28:53;21.08;;;12.95;;
82779;SDS011;72511;45.120;20.720;2024-02-26T02:38:54;24.30;;;14.55;;
82779;SDS011;72511;45.120;20.720;2024-02-26T02:48:56;26.65;;;15.60;;
82779;SDS011;72511;45.120;20.720;2024-02-26T02:58:57;27.48;;;16.67;;
82779;SDS011;72511;45.120;20.720;2024-02-26T03:08:58;30.90;;;15.90;;
82779;SDS011;72511;45.120;20.720;2024-02-26T03:19:00;28.88;;;19.60;;
82779;SDS011;72511;45.120;20.720;2024-02-26T03:29:02;27.10;;;18.30;;
82779;SDS011;72511;45.120;20.720;2024-02-26T03:39:03;31.88;;;21.15;;
82779;SDS011;72511;45.120;20.720;2024-02-26T03:49:08;28.25;;;19.00;;
82779;SDS011;72511;45.120;20.720;2024-02-26T03:59:10;30.08;;;18.92;;
82779;SDS011;72511;45.120;20.720;2024-02-26T04:09:11;22.95;;;13.73;;
82779;SDS011;72511;45.120;20.720;2024-02-26T04:19:14;29.52;;;18.45;;
82779;SDS011;72511;45.120;20.720;2024-02-26T04:29:16;22.42;;;14.45;;
82779;SDS011;72511;45.120;20.720;2024-02-26T04:39:17;23.75;;;16.45;;
82779;SDS011;72511;45.120;20.720;2024-02-26T04:49:19;20.13;;;11.75;;
82779;SDS011;72511;45.120;20.720;2024-02-26T04:59:20;24.05;;;14.50;;
82779;SDS011;72511;45.120;20.720;2024-02-26T05:09:21;23.13;;;14.65;;
82779;SDS011;72511;45.120;20.720;2024-02-26T05:19:23;19.65;;;12.68;;
82779;SDS011;72511;45.120;20.720;2024-02-26T05:29:24;32.47;;;19.48;;
82779;SDS011;72511;45.120;20.720;2024-02-26T05:39:26;53.85;;;24.30;;
82779;SDS011;72511;45.120;20.720;2024-02-26T05:49:27;32.95;;;17.70;;
82779;SDS011;72511;45.120;20.720;2024-02-26T05:59:28;44.08;;;23.92;;
82779;SDS011;72511;45.120;20.720;2024-02-26T06:09:30;28.92;;;17.33;;
82779;SDS011;72511;45.120;20.720;2024-02-26T06:19:31;19.50;;;12.45;;
82779;SDS011;72511;45.120;20.720;2024-02-26T06:29:33;35.45;;;22.65;;
82779;SDS011;72511;45.120;20.720;2024-02-26T06:39:34;27.02;;;17.10;;
82779;SDS011;72511;45.120;20.720;2024-02-26T06:49:37;43.00;;;21.17;;
82779;SDS011;72511;45.120;20.720;2024-02-26T06:59:39;26.40;;;17.88;;
82779;SDS011;72511;45.120;20.720;2024-02-26T07:09:41;29.35;;;18.33;;
82779;SDS011;72511;45.120;20.720;2024-02-26T07:19:43;22.42;;;14.98;;
82779;SDS011;72511;45.120;20.720;2024-02-26T07:29:44;24.48;;;15.63;;
82779;SDS011;72511;45.120;20.720;2024-02-26T07:39:46;31.90;;;17.55;;
82779;SDS011;72511;45.120;20.720;2024-02-26T07:49:47;22.77;;;14.20;;
82779;SDS011;72511;45.120;20.720;2024-02-26T07:59:48;21.63;;;13.27;;
82779;SDS011;72511;45.120;20.720;2024-02-26T08:09:50;18.33;;;11.55;;
82779;SDS011;72511;45.120;20.720;2024-02-26T08:19:52;17.08;;;11.10;;
82779;SDS011;72511;45.120;20.720;2024-02-26T08:29:53;15.63;;;10.55;;
82779;SDS011;72511;45.120;20.720;2024-02-26T08:39:54;17.90;;;11.57;;
82779;SDS011;72511;45.120;20.720;2024-02-26T08:49:56;15.40;;;8.48;;
82779;SDS011;72511;45.120;20.720;2024-02-26T08:59:57;17.05;;;8.93;;
82779;SDS011;72511;45.120;20.720;2024-02-26T09:09:59;29.77;;;13.77;;
82779;SDS011;72511;45.120;20.720;2024-02-26T09:20:01;36.05;;;15.20;;
82779;SDS011;72511;45.120;20.720;2024-02-26T09:30:03;43.67;;;21.58;;
82779;SDS011;72511;45.120;20.720;2024-02-26T09:40:06;11.95;;;6.63;;
82779;SDS011;72511;45.120;20.720;2024-02-26T09:50:07;9.60;;;5.78;;
82779;SDS011;72511;45.120;20.720;2024-02-26T10:00:12;13.85;;;5.60;;
82779;SDS011;72511;45.120;20.720;2024-02-26T10:10:19;10.30;;;7.20;;
82779;SDS011;72511;45.120;20.720;2024-02-26T10:20:21;9.73;;;6.47;;
82779;SDS011;72511;45.120;20.720;2024-02-26T10:30:24;9.60;;;5.18;;
82779;SDS011;72511;45.120;20.720;2024-02-26T10:40:27;8.90;;;5.50;;
82779;SDS011;72511;45.120;20.720;2024-02-26T10:50:28;17.17;;;7.35;;
82779;SDS011;72511;45.120;20.720;2024-02-26T11:00:29;13.13;;;8.35;;
82779;SDS011;72511;45.120;20.720;2024-02-26T11:10:32;16.02;;;10.45;;
82779;SDS011;72511;45.120;20.720;2024-02-26T11:20:33;33.50;;;15.15;;
82779;SDS011;72511;45.120;20.720;2024-02-26T11:30:39;11.40;;;8.43;;
82779;SDS011;72511;45.120;20.720;2024-02-26T11:40:45;43.17;;;20.95;;
82779;SDS011;72511;45.120;20.720;2024-02-26T11:50:48;23.90;;;12.95;;
82779;SDS011;72511;45.120;20.720;2024-02-26T12:00:49;23.38;;;12.05;;
82779;SDS011;72511;45.120;20.720;2024-02-26T12:10:50;14.77;;;8.05;;
82779;SDS011;72511;45.120;20.720;2024-02-26T12:21:05;9.32;;;4.63;;
82779;SDS011;72511;45.120;20.720;2024-02-26T12:31:07;9.48;;;4.80;;
82779;SDS011;72511;45.120;20.720;2024-02-26T12:41:08;11.25;;;5.63;;
82779;SDS011;72511;45.120;20.720;2024-02-26T12:51:11;9.27;;;3.92;;
82779;SDS011;72511;45.120;20.720;2024-02-26T13:01:16;11.73;;;6.47;;
82779;SDS011;72511;45.120;20.720;2024-02-26T13:11:21;10.80;;;5.70;;
82779;SDS011;72511;45.120;20.720;2024-02-26T13:21:22;14.68;;;8.63;;
82779;SDS011;72511;45.120;20.720;2024-02-26T13:31:25;18.33;;;6.85;;
82779;SDS011;72511;45.120;20.720;2024-02-26T13:41:26;9.13;;;5.78;;
82779;SDS011;72511;45.120;20.720;2024-02-26T13:51:28;9.27;;;4.80;;
82779;SDS011;72511;45.120;20.720;2024-02-26T14:01:36;8.95;;;5.97;;
82779;SDS011;72511;45.120;20.720;2024-02-26T14:11:37;10.85;;;5.90;;
82779;SDS011;72511;45.120;20.720;2024-02-26T14:21:40;11.57;;;6.65;;
82779;SDS011;72511;45.120;20.720;2024-02-26T14:31:43;10.05;;;6.20;;
82779;SDS011;72511;45.120;20.720;2024-02-26T14:41:44;13.82;;;8.30;;
82779;SDS011;72511;45.120;20.720;2024-02-26T14:51:46;11.50;;;8.07;;
82779;SDS011;72511;45.120;20.720;2024-02-26T15:01:47;10.52;;;6.30;;
82779;SDS011;72511;45.120;20.720;2024-02-26T15:11:50;10.18;;;6.07;;
82779;SDS011;72511;45.120;20.720;2024-02-26T15:21:51;11.38;;;5.45;;
82779;SDS011;72511;45.120;20.720;2024-02-26T15:31:53;9.07;;;6.65;;
82779;SDS011;72511;45.120;20.720;2024-02-26T15:41:54;16.55;;;8.90;;
82779;SDS011;72511;45.120;20.720;2024-02-26T15:51:55;10.13;;;6.50;;
82779;SDS011;72511;45.120;20.720;2024-02-26T16:01:57;16.40;;;9.93;;
82779;SDS011;72511;45.120;20.720;2024-02-26T16:11:59;15.43;;;7.82;;
82779;SDS011;72511;45.120;20.720;2024-02-26T16:22:09;9.27;;;7.13;;
82779;SDS011;72511;45.120;20.720;2024-02-26T16:32:11;14.18;;;9.63;;
82779;SDS011;72511;45.120;20.720;2024-02-26T16:42:12;12.85;;;8.50;;
82779;SDS011;72511;45.120;20.720;2024-02-26T16:52:15;17.65;;;8.75;;
82779;SDS011;72511;45.120;20.720;2024-02-26T17:02:16;16.65;;;10.38;;
82779;SDS011;72511;45.120;20.720;2024-02-26T17:12:18;18.60;;;13.07;;
82779;SDS011;72511;45.120;20.720;2024-02-26T17:22:22;16.20;;;11.55;;
82779;SDS011;72511;45.120;20.720;2024-02-26T17:32:26;18.05;;;12.50;;
82779;SDS011;72511;45.120;20.720;2024-02-26T17:42:27;16.50;;;9.60;;
82779;SDS011;72511;45.120;20.720;2024-02-26T17:52:29;17.98;;;9.82;;
82779;SDS011;72511;45.120;20.720;2024-02-26T18:02:37;23.40;;;14.32;;
82779;SDS011;72511;45.120;20.720;2024-02-26T18:12:39;21.23;;;11.38;;
82779;SDS011;72511;45.120;20.720;2024-02-26T18:22:40;20.23;;;11.40;;
82779;SDS011;72511;45.120;20.720;2024-02-26T18:32:42;20.52;;;12.18;;
82779;SDS011;72511;45.120;20.720;2024-02-26T18:42:43;16.83;;;10.13;;
82779;SDS011;72511;45.120;20.720;2024-02-26T18:52:45;17.13;;;11.38;;
82779;SDS011;72511;45.120;20.720;2024-02-26T19:02:47;18.00;;;11.75;;
82779;SDS011;72511;45.120;20.720;2024-02-26T19:12:48;20.88;;;12.55;;
82779;SDS011;72511;45.120;20.720;2024-02-26T19:22:50;19.25;;;11.55;;
82779;SDS011;72511;45.120;20.720;2024-02-26T19:32:53;23.58;;;14.82;;
82779;SDS011;72511;45.120;20.720;2024-02-26T19:42:55;19.52;;;10.88;;
82779;SDS011;72511;45.120;20.720;2024-02-26T19:52:57;24.13;;;14.98;;
82779;SDS011;72511;45.120;20.720;2024-02-26T20:02:59;23.50;;;14.48;;
82779;SDS011;72511;45.120;20.720;2024-02-26T20:13:02;26.80;;;16.23;;
82779;SDS011;72511;45.120;20.720;2024-02-26T20:23:04;22.58;;;14.25;;
82779;SDS011;72511;45.120;20.720;2024-02-26T20:33:05;20.23;;;11.80;;
82779;SDS011;72511;45.120;20.720;2024-02-26T20:43:06;20.15;;;11.05;;
82779;SDS011;72511;45.120;20.720;2024-02-26T20:53:09;19.20;;;12.70;;
82779;SDS011;72511;45.120;20.720;2024-02-26T21:03:14;21.48;;;10.82;;
82779;SDS011;72511;45.120;20.720;2024-02-26T21:13:18;16.58;;;9.63;;
82779;SDS011;72511;45.120;20.720;2024-02-26T21:23:19;19.08;;;13.77;;
82779;SDS011;72511;45.120;20.720;2024-02-26T21:33:23;19.90;;;12.82;;
82779;SDS011;72511;45.120;20.720;2024-02-26T21:43:26;19.63;;;13.27;;
82779;SDS011;72511;45.120;20.720;2024-02-26T21:53:30;16.00;;;10.30;;
82779;SDS011;72511;45.120;20.720;2024-02-26T22:03:31;19.60;;;13.25;;
82779;SDS011;72511;45.120;20.720;2024-02-26T22:13:32;21.70;;;11.07;;
82779;SDS011;72511;45.120;20.720;2024-02-26T22:23:34;19.58;;;11.90;;
82779;SDS011;72511;45.120;20.720;2024-02-26T22:33:35;18.52;;;11.98;;
82779;SDS011;72511;45.120;20.720;2024-02-26T22:43:36;21.92;;;13.10;;
82779;SDS011;72511;45.120;20.720;2024-02-26T22:53:38;25.73;;;15.43;;
82779;SDS011;72511;45.120;20.720;2024-02-26T23:03:39;30.55;;;22.65;;
82779;SDS011;72511;45.120;20.720;2024-02-26T23:13:40;36.25;;;22.92;;
82779;SDS011;72511;45.120;20.720;2024-02-26T23:23:42;30.33;;;20.98;;
82779;SDS011;72511;45.120;20.720;2024-02-26T23:33:44;28.15;;;16.50;;
82779;SDS011;72511;45.120;20.720;2024-02-26T23:43:45;30.73;;;18.58;;
82779;SDS011;72511;45.120;20.720;2024-02-26T23:53:46;31.60;;;22.88;;
